Time;durP1;ratioP1;P1;durP2;ratioP2;P2;SDS_P1;SDS_P2;PMS_P1;PMS_P2;Temp;Humidity;BMP_temperature;BMP_pressure;BME280_temperature;BME280_humidity;BME280_pressure;Samples;Min_cycle;Max_cycle;Signal;HPM_P1;HPM_P2
2021/08/30 00:00:18;;;;;;;580.07;522.00;;;;;;;-142.25;100.00;58004.16;5079609;28;20062;-64
2021/08/30 00:02:43;;;;;;;582.50;525.00;;;;;;;-142.25;100.00;58004.16;5078541;28;20117;-64
2021/08/30 00:05:09;;;;;;;576.45;518.78;;;;;;;-142.25;100.00;58004.16;5080828;28;20038;-63
2021/08/30 00:07:35;;;;;;;588.30;529.70;;;;;;;-142.25;100.00;58004.16;5078186;28;20039;-63
2021/08/30 00:10:01;;;;;;;594.13;535.80;;;;;;;-142.25;100.00;58004.16;5079842;28;20040;-63
2021/08/30 00:12:26;;;;;;;574.13;516.90;;;;;;;-142.25;100.00;58004.16;5078252;28;20028;-63
2021/08/30 00:14:52;;;;;;;574.90;517.83;;;;;;;-142.25;100.00;58004.16;5080067;28;20039;-63
2021/08/30 00:17:19;;;;;;;581.40;523.87;;;;;;;-142.25;100.00;58004.16;5058966;28;20039;-63
2021/08/30 00:19:45;;;;;;;574.50;517.23;;;;;;;-142.25;100.00;58004.16;5078061;28;20127;-63
2021/08/30 00:22:10;;;;;;;566.30;508.97;;;;;;;-142.25;100.00;58004.16;5077852;28;20107;-63
2021/08/30 00:24:35;;;;;;;574.37;517.40;;;;;;;-142.25;100.00;58004.16;5078382;28;20411;-63
2021/08/30 00:27:01;;;;;;;588.05;534.75;;;;;;;-142.25;100.00;58004.16;5077308;28;20110;-64
2021/08/30 00:29:26;;;;;;;578.43;520.97;;;;;;;-142.25;100.00;58004.16;5079067;28;20668;-64
2021/08/30 00:31:53;;;;;;;574.33;518.40;;;;;;;-142.25;100.00;58004.16;5077899;28;20040;-64
2021/08/30 00:34:18;;;;;;;568.47;510.50;;;;;;;-142.25;100.00;58004.16;5078900;28;20055;-64
2021/08/30 00:36:44;;;;;;;575.28;525.08;;;;;;;-142.25;100.00;58004.16;5079513;28;20065;-64
2021/08/30 00:39:09;;;;;;;544.88;509.85;;;;;;;-142.25;100.00;58004.16;5076395;28;20309;-64
2021/08/30 00:41:35;;;;;;;519.97;486.67;;;;;;;-142.25;100.00;58004.16;5079489;28;20376;-64
2021/08/30 00:44:00;;;;;;;563.50;516.20;;;;;;;-142.25;100.00;58004.16;5079173;28;20043;-64
2021/08/30 00:46:25;;;;;;;1.75;1.65;;;;;;;-142.25;100.00;58004.16;5078473;28;20126;-64
2021/08/30 00:48:51;;;;;;;1.25;1.20;;;;;;;-142.25;100.00;58004.16;5079678;28;20036;-63
2021/08/30 00:51:19;;;;;;;1.20;1.20;;;;;;;-142.25;100.00;58004.16;5079737;28;20048;-63
2021/08/30 00:53:45;;;;;;;1.13;1.13;;;;;;;-142.25;100.00;58004.16;5077510;28;20241;-63
2021/08/30 00:56:12;;;;;;;1.30;1.30;;;;;;;-142.25;100.00;58004.16;5077435;28;20040;-63
2021/08/30 00:58:42;;;;;;;1.65;1.55;;;;;;;-142.25;100.00;58004.16;5078458;28;20033;-62
2021/08/30 01:01:09;;;;;;;1.30;1.20;;;;;;;-142.25;100.00;58004.16;5077756;28;20163;-63
2021/08/30 01:03:36;;;;;;;1.30;1.20;;;;;;;-142.25;100.00;58004.16;5078344;28;20110;-63
2021/08/30 01:06:15;;;;;;;1.40;1.30;;;;;;;-142.25;100.00;58004.16;5078681;28;20028;-64
2021/08/30 01:08:48;;;;;;;1.45;1.45;;;;;;;-142.25;100.00;58004.16;5080908;28;20296;-64
2021/08/30 01:11:21;;;;;;;1.77;1.67;;;;;;;-142.25;100.00;58004.16;5081715;28;20039;-64
2021/08/30 01:13:59;;;;;;;1.40;1.30;;;;;;;-142.25;100.00;58004.16;5081335;28;20089;-64
2021/08/30 01:16:26;;;;;;;1.50;1.20;;;;;;;-142.25;100.00;58004.16;5081490;28;20123;-64
2021/08/30 01:18:53;;;;;;;1.38;1.30;;;;;;;-142.25;100.00;58004.16;5081835;28;20025;-64
2021/08/30 01:21:33;;;;;;;1.48;1.42;;;;;;;-142.25;100.00;58004.16;5063624;28;20036;-64
2021/08/30 01:24:05;;;;;;;1.02;0.93;;;;;;;-142.25;100.00;58004.16;5082777;28;20042;-64
2021/08/30 01:26:38;;;;;;;1.60;1.50;;;;;;;-142.25;100.00;58004.16;5080687;28;20826;-64
2021/08/30 01:29:12;;;;;;;1.25;1.25;;;;;;;-142.25;100.00;58004.16;5081621;28;20036;-64
2021/08/30 01:31:54;;;;;;;1.30;1.30;;;;;;;-142.25;100.00;58004.16;5080500;28;20055;-64
2021/08/30 01:34:21;;;;;;;1.85;1.50;;;;;;;-142.25;100.00;58004.16;5080789;28;20338;-64
2021/08/30 01:36:49;;;;;;;1.30;1.30;;;;;;;-142.25;100.00;58004.16;5080209;28;20036;-64
2021/08/30 01:39:16;;;;;;;1.42;1.33;;;;;;;-142.25;100.00;58004.16;5082750;28;20784;-64
2021/08/30 01:41:44;;;;;;;1.52;1.42;;;;;;;-142.25;100.00;58004.16;5082040;28;20376;-64
2021/08/30 01:44:10;;;;;;;1.67;1.58;;;;;;;-142.25;100.00;58004.16;5082449;28;20302;-64
2021/08/30 01:46:38;;;;;;;1.25;1.25;;;;;;;-142.25;100.00;58004.16;5080094;28;20059;-64
2021/08/30 01:49:05;;;;;;;1.60;1.50;;;;;;;-142.25;100.00;58004.16;5082210;28;20056;-64
2021/08/30 01:51:31;;;;;;;1.60;1.50;;;;;;;-142.25;100.00;58004.16;5081201;28;20094;-64
2021/08/30 01:53:58;;;;;;;1.38;1.33;;;;;;;-142.25;100.00;58004.16;5081412;28;20067;-64
2021/08/30 01:56:27;;;;;;;1.20;1.20;;;;;;;-142.25;100.00;58004.16;5080367;28;20035;-64
2021/08/30 02:01:38;;;;;;;1.85;1.40;;;;;;;-142.25;100.00;58004.16;5080378;28;20396;-64
2021/08/30 02:04:04;;;;;;;1.00;1.00;;;;;;;-142.25;100.00;58004.16;5081311;28;20028;-64
2021/08/30 02:06:31;;;;;;;1.30;1.30;;;;;;;-142.25;100.00;58004.16;5080168;28;20029;-64
2021/08/30 02:08:58;;;;;;;1.15;1.15;;;;;;;-142.25;100.00;58004.16;5081942;28;20032;-64
2021/08/30 02:11:33;;;;;;;1.27;1.27;;;;;;;-142.25;100.00;58004.16;5079326;28;20516;-64
2021/08/30 02:14:00;;;;;;;1.48;1.38;;;;;;;-142.25;100.00;58004.16;5080363;28;20035;-64
2021/08/30 02:16:27;;;;;;;1.55;1.42;;;;;;;-142.25;100.00;58004.16;5082913;28;20051;-64
2021/08/30 02:19:14;;;;;;;1.33;1.33;;;;;;;-142.25;100.00;58004.16;5081229;28;20074;-64
2021/08/30 02:21:54;;;;;;;1.58;1.48;;;;;;;-142.25;100.00;58004.16;5082667;28;20122;-64
2021/08/30 02:24:34;;;;;;;2.03;1.27;;;;;;;-142.25;100.00;58004.16;5081930;28;20024;-64
2021/08/30 02:27:02;;;;;;;1.48;1.38;;;;;;;-142.25;100.00;58004.16;5081854;28;20028;-64
2021/08/30 02:29:50;;;;;;;3.38;1.35;;;;;;;-142.25;100.00;58004.16;5081183;28;20131;-64
2021/08/30 02:32:18;;;;;;;1.10;1.10;;;;;;;-142.25;100.00;58004.16;5080179;28;20040;-64
2021/08/30 02:34:48;;;;;;;1.27;1.27;;;;;;;-142.25;100.00;58004.16;5082292;28;20063;-64
2021/08/30 02:37:14;;;;;;;1.40;1.30;;;;;;;-142.25;100.00;58004.16;5080239;28;20025;-64
2021/08/30 02:39:47;;;;;;;1.20;1.20;;;;;;;-142.25;100.00;58004.16;5082546;28;20020;-64
2021/08/30 02:42:13;;;;;;;1.17;1.17;;;;;;;-142.25;100.00;58004.16;5081288;28;20142;-64
2021/08/30 02:44:38;;;;;;;1.40;1.35;;;;;;;-142.25;100.00;58004.16;5079234;28;20038;-64
2021/08/30 02:47:05;;;;;;;1.20;1.10;;;;;;;-142.25;100.00;58004.16;5079909;28;20032;-64
2021/08/30 02:49:31;;;;;;;1.10;1.10;;;;;;;-142.25;100.00;58004.16;5078864;28;20033;-64
2021/08/30 02:52:04;;;;;;;1.30;1.30;;;;;;;-142.25;100.00;58004.16;5080380;28;20028;-64
2021/08/30 02:54:30;;;;;;;1.25;1.25;;;;;;;-142.25;100.00;58004.16;5080266;28;20392;-64
2021/08/30 02:56:56;;;;;;;1.35;1.30;;;;;;;-142.25;100.00;58004.16;5079477;28;20020;-64
2021/08/30 02:59:23;;;;;;;1.42;1.17;;;;;;;-142.25;100.00;58004.16;5081221;28;20281;-64
2021/08/30 03:01:49;;;;;;;1.77;1.67;;;;;;;-142.25;100.00;58004.16;5081447;28;20032;-64
2021/08/30 03:04:14;;;;;;;1.25;1.20;;;;;;;-142.25;100.00;58004.16;5080271;28;20038;-64
2021/08/30 03:06:41;;;;;;;1.60;1.52;;;;;;;-142.25;100.00;58004.16;5081177;28;20463;-64
2021/08/30 03:09:07;;;;;;;1.67;1.20;;;;;;;-142.25;100.00;58004.16;5079699;28;20032;-64
2021/08/30 03:11:35;;;;;;;1.25;1.25;;;;;;;-142.25;100.00;58004.16;5083364;28;20036;-64
2021/08/30 03:14:02;;;;;;;2.78;1.50;;;;;;;-142.25;100.00;58004.16;5072577;28;20032;-64
2021/08/30 03:16:29;;;;;;;1.20;1.20;;;;;;;-142.25;100.00;58004.16;5061221;28;20392;-64
2021/08/30 03:18:57;;;;;;;1.25;1.23;;;;;;;-142.25;100.00;58004.16;5079142;28;20029;-64
2021/08/30 03:21:28;;;;;;;1.08;1.08;;;;;;;-142.25;100.00;58004.16;5082444;28;20427;-64
2021/08/30 03:23:55;;;;;;;1.20;1.10;;;;;;;-142.25;100.00;58004.16;5079012;28;20051;-64
2021/08/30 03:26:22;;;;;;;1.75;1.65;;;;;;;-142.25;100.00;58004.16;5078429;28;20032;-64
2021/08/30 03:28:49;;;;;;;1.17;1.17;;;;;;;-142.25;100.00;58004.16;5078175;28;20297;-64
2021/08/30 03:31:15;;;;;;;1.35;1.25;;;;;;;-142.25;100.00;58004.16;5080792;28;20042;-64
2021/08/30 03:33:42;;;;;;;1.20;1.20;;;;;;;-142.25;100.00;58004.16;5079912;28;20052;-64
2021/08/30 03:36:09;;;;;;;1.10;1.10;;;;;;;-142.25;100.00;58004.16;5080336;28;20048;-64
2021/08/30 03:38:35;;;;;;;1.70;1.60;;;;;;;-142.25;100.00;58004.16;5081975;28;20035;-64
2021/08/30 03:41:02;;;;;;;1.40;1.40;;;;;;;-142.25;100.00;58004.16;5079699;28;20055;-64
2021/08/30 03:43:28;;;;;;;1.08;1.08;;;;;;;-142.25;100.00;58004.16;5078480;28;20502;-64
2021/08/30 03:45:55;;;;;;;3.58;1.23;;;;;;;-142.25;100.00;58004.16;5080828;28;20280;-64
2021/08/30 03:48:23;;;;;;;1.40;1.35;;;;;;;-142.25;100.00;58004.16;5080600;28;20036;-64
2021/08/30 03:50:49;;;;;;;1.67;1.58;;;;;;;-142.25;100.00;58004.16;5080614;28;20047;-64
2021/08/30 03:53:17;;;;;;;1.58;1.48;;;;;;;-142.25;100.00;58004.16;5080622;28;20547;-64
2021/08/30 03:55:44;;;;;;;1.30;1.30;;;;;;;-142.25;100.00;58004.16;5062614;28;20032;-64
2021/08/30 03:58:10;;;;;;;1.52;1.17;;;;;;;-142.25;100.00;58004.16;5078622;28;20086;-64
2021/08/30 04:00:36;;;;;;;1.27;1.27;;;;;;;-142.25;100.00;58004.16;5078552;28;20064;-63
2021/08/30 04:03:03;;;;;;;1.20;1.20;;;;;;;-142.25;100.00;58004.16;5079946;28;20036;-63
2021/08/30 04:05:29;;;;;;;2.40;1.40;;;;;;;-142.25;100.00;58004.16;5078125;28;20043;-63
2021/08/30 04:07:58;;;;;;;1.13;1.10;;;;;;;-142.25;100.00;58004.16;5079053;28;20032;-63
2021/08/30 04:10:25;;;;;;;4.30;1.10;;;;;;;-142.25;100.00;58004.16;5078395;28;20297;-63
2021/08/30 04:12:53;;;;;;;1.10;1.10;;;;;;;-142.25;100.00;58004.16;5079573;28;20024;-63
2021/08/30 04:15:19;;;;;;;3.17;1.10;;;;;;;-142.25;100.00;58004.16;5079495;28;20043;-63
2021/08/30 04:17:44;;;;;;;5.78;2.10;;;;;;;-142.25;100.00;58004.16;5078422;28;20028;-63
2021/08/30 04:20:10;;;;;;;1.27;1.17;;;;;;;-142.25;100.00;58004.16;5078950;28;20081;-64
2021/08/30 04:22:36;;;;;;;1.00;1.00;;;;;;;-142.25;100.00;58004.16;5080506;28;20027;-63
2021/08/30 04:25:03;;;;;;;1.00;1.00;;;;;;;-142.25;100.00;58004.16;5079882;28;20103;-63
2021/08/30 04:27:29;;;;;;;1.73;1.30;;;;;;;-142.25;100.00;58004.16;5077033;28;20028;-63
2021/08/30 04:29:54;;;;;;;1.83;1.35;;;;;;;-142.25;100.00;58004.16;5080094;28;20042;-63
2021/08/30 04:32:20;;;;;;;1.40;1.30;;;;;;;-142.25;100.00;58004.16;5079301;28;20040;-63
2021/08/30 04:34:45;;;;;;;1.20;1.20;;;;;;;-142.25;100.00;58004.16;5078979;28;20052;-63
2021/08/30 04:37:11;;;;;;;8.57;1.33;;;;;;;-142.25;100.00;58004.16;5080362;28;20035;-63
2021/08/30 04:39:36;;;;;;;1.45;1.45;;;;;;;-142.25;100.00;58004.16;5077051;28;20695;-62
2021/08/30 04:42:04;;;;;;;2.35;1.30;;;;;;;-142.25;100.00;58004.16;5077334;28;20032;-63
2021/08/30 04:44:29;;;;;;;1.50;1.40;;;;;;;-142.25;100.00;58004.16;5079371;28;20032;-63
2021/08/30 04:46:55;;;;;;;1.35;1.25;;;;;;;-142.25;100.00;58004.16;5079931;28;20090;-63
2021/08/30 04:49:20;;;;;;;1.00;1.00;;;;;;;-142.25;100.00;58004.16;5080143;28;20033;-63
2021/08/30 04:51:46;;;;;;;1.50;1.40;;;;;;;-142.25;100.00;58004.16;5077071;28;20060;-63
2021/08/30 04:54:11;;;;;;;1.50;1.40;;;;;;;-142.25;100.00;58004.16;5063748;28;20040;-63
2021/08/30 04:56:36;;;;;;;1.30;1.20;;;;;;;-142.25;100.00;58004.16;5076219;28;20367;-63
2021/08/30 04:59:02;;;;;;;1.10;1.10;;;;;;;-142.25;100.00;58004.16;5078397;28;20681;-63
2021/08/30 05:01:27;;;;;;;1.08;1.05;;;;;;;-142.25;100.00;58004.16;5076460;28;20082;-63
2021/08/30 05:03:53;;;;;;;1.08;1.08;;;;;;;-142.25;100.00;58004.16;5081075;28;20033;-63
2021/08/30 05:06:19;;;;;;;1.80;0.98;;;;;;;-142.25;100.00;58004.16;5077739;28;20110;-63
2021/08/30 05:08:45;;;;;;;1.13;1.13;;;;;;;-142.25;100.00;58004.16;5080388;28;20428;-63
2021/08/30 05:11:10;;;;;;;1.80;1.10;;;;;;;-142.25;100.00;58004.16;5078304;28;20120;-63
2021/08/30 05:13:35;;;;;;;1.02;1.02;;;;;;;-142.25;100.00;58004.16;5078900;28;20033;-63
2021/08/30 05:16:01;;;;;;;1.50;1.40;;;;;;;-142.25;100.00;58004.16;5077397;28;20029;-63
2021/08/30 05:18:26;;;;;;;1.20;1.20;;;;;;;-142.25;100.00;58004.16;5078316;28;20024;-63
2021/08/30 05:20:53;;;;;;;1.05;1.05;;;;;;;-142.25;100.00;58004.16;5076975;28;20276;-63
2021/08/30 05:23:19;;;;;;;1.17;1.15;;;;;;;-142.25;100.00;58004.16;5077514;28;20032;-64
2021/08/30 05:25:44;;;;;;;1.20;1.20;;;;;;;-142.25;100.00;58004.16;5076903;28;20031;-64
2021/08/30 05:28:10;;;;;;;1.20;1.20;;;;;;;-142.25;100.00;58004.16;5077712;28;20036;-64
2021/08/30 05:30:36;;;;;;;1.40;1.30;;;;;;;-142.25;100.00;58004.16;5077003;28;20058;-64
2021/08/30 05:33:03;;;;;;;1.30;1.13;;;;;;;-142.25;100.00;58004.16;5079459;28;20043;-64
2021/08/30 05:35:28;;;;;;;1.40;1.30;;;;;;;-142.25;100.00;58004.16;5078354;28;20043;-63
2021/08/30 05:37:54;;;;;;;1.00;1.00;;;;;;;-142.25;100.00;58004.16;5077028;28;20049;-64
2021/08/30 05:40:19;;;;;;;1.10;1.10;;;;;;;-142.25;100.00;58004.16;5077763;28;20036;-63
2021/08/30 05:42:45;;;;;;;1.58;1.48;;;;;;;-142.25;100.00;58004.16;5078449;28;20028;-64
2021/08/30 05:45:10;;;;;;;3.30;1.23;;;;;;;-142.25;100.00;58004.16;5078519;28;20055;-64
2021/08/30 05:47:36;;;;;;;1.40;1.40;;;;;;;-142.25;100.00;58004.16;5078375;28;20032;-64
2021/08/30 05:50:02;;;;;;;2.00;1.20;;;;;;;-142.25;100.00;58004.16;5079158;28;20785;-64
2021/08/30 05:52:27;;;;;;;1.35;1.27;;;;;;;-142.25;100.00;58004.16;5077999;28;20039;-64
2021/08/30 05:54:52;;;;;;;1.20;1.20;;;;;;;-142.25;100.00;58004.16;5084191;28;20139;-64
2021/08/30 05:57:18;;;;;;;1.48;1.42;;;;;;;-142.25;100.00;58004.16;5079848;28;20024;-64
2021/08/30 05:59:43;;;;;;;1.38;1.10;;;;;;;-142.25;100.00;58004.16;5080819;28;20051;-64
2021/08/30 06:02:10;;;;;;;1.23;1.23;;;;;;;-142.25;100.00;58004.16;5081860;28;20055;-64
2021/08/30 06:04:36;;;;;;;1.50;1.40;;;;;;;-142.25;100.00;58004.16;5083252;28;20073;-64
2021/08/30 06:07:02;;;;;;;1.33;1.23;;;;;;;-142.25;100.00;58004.16;5080287;28;20399;-64
2021/08/30 06:09:29;;;;;;;1.50;1.40;;;;;;;-142.25;100.00;58004.16;5080696;28;20388;-64
2021/08/30 06:11:54;;;;;;;1.23;0.98;;;;;;;-142.25;100.00;58004.16;5081141;28;20058;-64
2021/08/30 06:14:20;;;;;;;1.10;1.10;;;;;;;-142.25;100.00;58004.16;5079709;28;20420;-64
2021/08/30 06:16:45;;;;;;;1.40;1.30;;;;;;;-142.25;100.00;58004.16;5079642;28;20491;-64
2021/08/30 06:19:11;;;;;;;1.42;1.33;;;;;;;-142.25;100.00;58004.16;5080005;28;20032;-63
2021/08/30 06:21:36;;;;;;;1.10;1.10;;;;;;;-142.25;100.00;58004.16;5082679;28;20097;-64
2021/08/30 06:24:02;;;;;;;1.35;1.17;;;;;;;-142.25;100.00;58004.16;5082391;28;20055;-64
2021/08/30 06:26:27;;;;;;;1.25;1.00;;;;;;;-142.25;100.00;58004.16;5065096;28;20037;-64
2021/08/30 06:28:53;;;;;;;1.58;1.48;;;;;;;-142.25;100.00;58004.16;5080982;28;20041;-64
2021/08/30 06:31:18;;;;;;;1.55;1.45;;;;;;;-142.25;100.00;58004.16;5080616;28;20031;-61
2021/08/30 06:33:44;;;;;;;1.20;1.17;;;;;;;-142.25;100.00;58004.16;5066217;28;20049;-64
2021/08/30 06:36:10;;;;;;;1.27;1.27;;;;;;;-142.25;100.00;58004.16;5058189;28;20135;-64
2021/08/30 06:38:35;;;;;;;1.70;1.60;;;;;;;-142.25;100.00;58004.16;5060287;28;20442;-64
2021/08/30 06:41:01;;;;;;;1.20;1.20;;;;;;;-142.25;100.00;58004.16;5059825;28;20041;-64
2021/08/30 06:43:27;;;;;;;1.98;1.35;;;;;;;-142.25;100.00;58004.16;5059430;28;20113;-64
2021/08/30 06:45:52;;;;;;;1.77;1.50;;;;;;;-142.25;100.00;58004.16;5059996;28;20074;-64
2021/08/30 06:48:17;;;;;;;1.13;1.13;;;;;;;-142.25;100.00;58004.16;5059679;28;20029;-64
2021/08/30 06:50:43;;;;;;;1.42;1.35;;;;;;;-142.25;100.00;58004.16;5060262;28;20035;-64
2021/08/30 06:53:11;;;;;;;1.27;1.27;;;;;;;-142.25;100.00;58004.16;5061621;28;20091;-64
2021/08/30 06:55:37;;;;;;;1.10;1.10;;;;;;;-142.25;100.00;58004.16;5058855;28;20039;-64
2021/08/30 06:58:03;;;;;;;1.60;1.50;;;;;;;-142.25;100.00;58004.16;5057206;28;20025;-64
2021/08/30 07:00:29;;;;;;;1.38;1.38;;;;;;;-142.25;100.00;58004.16;5059030;28;20024;-64
2021/08/30 07:02:54;;;;;;;1.20;1.10;;;;;;;-142.25;100.00;58004.16;5057976;28;20051;-64
2021/08/30 07:05:21;;;;;;;0.95;0.95;;;;;;;-142.25;100.00;58004.16;5059416;28;20040;-64
2021/08/30 07:07:46;;;;;;;1.75;1.63;;;;;;;-142.25;100.00;58004.16;5060887;28;20651;-64
2021/08/30 07:10:12;;;;;;;1.38;1.38;;;;;;;-142.25;100.00;58004.16;5060733;28;20029;-64
2021/08/30 07:12:38;;;;;;;1.10;1.10;;;;;;;-142.25;100.00;58004.16;5060620;28;20258;-64
2021/08/30 07:15:04;;;;;;;1.80;1.70;;;;;;;-142.25;100.00;58004.16;5059897;28;20039;-64
2021/08/30 07:17:29;;;;;;;1.70;1.60;;;;;;;-142.25;100.00;58004.16;5065198;28;20024;-66
2021/08/30 07:19:55;;;;;;;1.27;1.27;;;;;;;-142.25;100.00;58004.16;5059340;28;20041;-64
2021/08/30 07:22:20;;;;;;;1.30;1.30;;;;;;;-142.25;100.00;58004.16;5057178;28;20115;-64
2021/08/30 07:24:46;;;;;;;1.48;1.48;;;;;;;-142.25;100.00;58004.16;5059511;28;20090;-64
2021/08/30 07:27:11;;;;;;;1.77;1.67;;;;;;;-142.25;100.00;58004.16;5056785;28;20047;-64
2021/08/30 07:29:37;;;;;;;1.75;1.65;;;;;;;-142.25;100.00;58004.16;5057605;28;20056;-64
2021/08/30 07:32:03;;;;;;;1.33;1.33;;;;;;;-142.25;100.00;58004.16;5055744;28;20088;-64
2021/08/30 07:34:28;;;;;;;1.90;1.80;;;;;;;-142.25;100.00;58004.16;5070034;28;20182;-64
2021/08/30 07:36:54;;;;;;;1.30;1.30;;;;;;;-142.25;100.00;58004.16;5078808;28;20161;-64
2021/08/30 07:39:20;;;;;;;1.40;1.40;;;;;;;-142.25;100.00;58004.16;5080145;28;20228;-64
2021/08/30 07:41:46;;;;;;;2.05;1.95;;;;;;;-142.25;100.00;58004.16;5077510;28;20040;-64
2021/08/30 07:44:12;;;;;;;1.92;1.83;;;;;;;-142.25;100.00;58004.16;5078193;28;20032;-64
2021/08/30 07:46:38;;;;;;;8.52;4.70;;;;;;;-142.25;100.00;58004.16;5077920;28;20093;-64
2021/08/30 07:49:03;;;;;;;6.30;4.00;;;;;;;-142.25;100.00;58004.16;5078828;28;20326;-64
2021/08/30 07:51:28;;;;;;;6.47;4.00;;;;;;;-142.25;100.00;58004.16;5080053;28;20105;-64
2021/08/30 07:53:54;;;;;;;8.82;4.95;;;;;;;-142.25;100.00;58004.16;5080162;28;20024;-59
2021/08/30 07:56:20;;;;;;;10.55;5.05;;;;;;;-142.25;100.00;58004.16;5077936;28;20359;-60
2021/08/30 07:58:45;;;;;;;9.50;5.05;;;;;;;-142.25;100.00;58004.16;5078122;28;20116;-59
2021/08/30 08:01:11;;;;;;;12.60;6.22;;;;;;;-142.25;100.00;58004.16;5078955;28;20032;-59
2021/08/30 08:03:36;;;;;;;10.50;5.13;;;;;;;-142.25;100.00;58004.16;5078859;28;20119;-58
2021/08/30 08:06:02;;;;;;;11.10;5.35;;;;;;;-142.25;100.00;58004.16;5064020;28;20028;-59
2021/08/30 08:08:27;;;;;;;13.90;6.47;;;;;;;-142.25;100.00;58004.16;5080948;28;20040;-57
2021/08/30 08:10:53;;;;;;;8.88;4.88;;;;;;;-142.25;100.00;58004.16;5077413;28;20032;-56
2021/08/30 08:13:18;;;;;;;23.67;15.02;;;;;;;-142.25;100.00;58004.16;5078860;28;20044;-59
2021/08/30 08:15:45;;;;;;;19.27;15.35;;;;;;;-142.25;100.00;58004.16;5077133;28;20093;-59
2021/08/30 08:18:11;;;;;;;17.20;7.68;;;;;;;-142.25;100.00;58004.16;5077819;28;20035;-58
2021/08/30 08:20:36;;;;;;;13.18;6.07;;;;;;;-142.25;100.00;58004.16;5076846;28;20044;-56
2021/08/30 08:23:04;;;;;;;11.45;5.50;;;;;;;-142.25;100.00;58004.16;5078298;28;20036;-57
2021/08/30 08:25:29;;;;;;;11.40;5.55;;;;;;;-142.25;100.00;58004.16;5078690;28;20753;-58
2021/08/30 08:27:57;;;;;;;9.43;4.85;;;;;;;-142.25;100.00;58004.16;5078052;28;20036;-58
2021/08/30 08:30:22;;;;;;;12.55;5.75;;;;;;;-142.25;100.00;58004.16;5077569;28;20089;-57
2021/08/30 08:32:48;;;;;;;10.52;4.53;;;;;;;-142.25;100.00;58004.16;5078276;28;20063;-58
2021/08/30 08:35:14;;;;;;;8.23;4.38;;;;;;;-142.25;100.00;58004.16;5078688;28;20064;-59
2021/08/30 08:37:40;;;;;;;15.93;7.55;;;;;;;-142.25;100.00;58004.16;5078945;28;20051;-59
2021/08/30 08:40:07;;;;;;;8.27;4.22;;;;;;;-142.25;100.00;58004.16;5079372;28;20389;-58
2021/08/30 08:42:38;;;;;;;16.05;6.35;;;;;;;-142.25;100.00;58004.16;5078628;28;20063;-58
2021/08/30 08:45:05;;;;;;;9.00;4.55;;;;;;;-142.25;100.00;58004.16;5078013;28;20135;-60
2021/08/30 08:47:31;;;;;;;10.00;5.07;;;;;;;-142.25;100.00;58004.16;5077738;28;20079;-58
2021/08/30 08:49:56;;;;;;;9.88;4.97;;;;;;;-142.25;100.00;58004.16;5079337;28;20508;-56
2021/08/30 08:52:23;;;;;;;5.57;3.47;;;;;;;-142.25;100.00;58004.16;5077339;28;20039;-57
2021/08/30 08:54:49;;;;;;;11.60;5.18;;;;;;;-142.25;100.00;58004.16;5079471;28;20051;-59
2021/08/30 08:57:15;;;;;;;7.20;4.00;;;;;;;-142.25;100.00;58004.16;5077770;28;20040;-58
2021/08/30 08:59:54;;;;;;;8.43;4.63;;;;;;;-142.25;100.00;58004.16;5079968;28;20273;-56
2021/08/30 09:02:25;;;;;;;11.20;5.53;;;;;;;-142.25;100.00;58004.16;5078249;28;20556;-56
2021/08/30 09:04:53;;;;;;;12.95;6.55;;;;;;;-142.25;100.00;58004.16;5078744;28;20296;-59
2021/08/30 09:07:19;;;;;;;12.45;6.30;;;;;;;-142.25;100.00;58004.16;5076991;28;20039;-56
2021/08/30 09:09:46;;;;;;;8.27;4.40;;;;;;;-142.25;100.00;58004.16;5078582;28;20032;-58
2021/08/30 09:12:21;;;;;;;8.65;4.65;;;;;;;-142.25;100.00;58004.16;5078292;28;20066;-58
2021/08/30 09:14:47;;;;;;;7.53;4.75;;;;;;;-142.25;100.00;58004.16;5080557;28;20770;-56
2021/08/30 09:17:13;;;;;;;8.23;4.65;;;;;;;-142.25;100.00;58004.16;5078071;28;20100;-59
2021/08/30 09:19:40;;;;;;;6.22;3.65;;;;;;;-142.25;100.00;58004.16;5078532;28;20112;-57
2021/08/30 09:22:07;;;;;;;6.45;4.15;;;;;;;-142.25;100.00;58004.16;5078565;28;20300;-58
2021/08/30 09:24:33;;;;;;;259.45;247.73;;;;;;;-142.25;100.00;58004.16;5061110;28;20292;-58
2021/08/30 09:27:08;;;;;;;366.73;348.00;;;;;;;-142.25;100.00;58004.16;5077172;28;20439;-59
2021/08/30 09:29:39;;;;;;;426.08;403.80;;;;;;;-142.25;100.00;58004.16;5082211;28;20027;-57
2021/08/30 09:32:09;;;;;;;461.05;436.40;;;;;;;-142.25;100.00;58004.16;5081900;28;20036;-57
2021/08/30 09:34:37;;;;;;;397.55;377.35;;;;;;;-142.25;100.00;58004.16;5068893;28;20049;-59
2021/08/30 09:37:05;;;;;;;359.67;341.27;;;;;;;-142.25;100.00;58004.16;5060466;28;20431;-59
2021/08/30 09:39:32;;;;;;;475.42;450.27;;;;;;;-142.25;100.00;58004.16;5062655;28;20052;-59
2021/08/30 09:42:00;;;;;;;556.33;525.50;;;;;;;-142.25;100.00;58004.16;5063090;28;20111;-60
2021/08/30 09:44:27;;;;;;;514.28;485.27;;;;;;;-142.25;100.00;58004.16;5064843;28;20668;-59
2021/08/30 09:46:54;;;;;;;8.85;4.82;;;;;;;-142.25;100.00;58004.16;5061625;28;20032;-58
2021/08/30 09:49:28;;;;;;;11.75;5.75;;;;;;;-142.25;100.00;58004.16;5069191;28;20423;-57
2021/08/30 09:51:54;;;;;;;7.13;3.90;;;;;;;-142.25;100.00;58004.16;5064419;28;20281;-57
2021/08/30 09:54:20;;;;;;;5.72;3.58;;;;;;;-142.25;100.00;58004.16;5062761;28;20037;-59
2021/08/30 09:56:48;;;;;;;5.68;3.42;;;;;;;-142.25;100.00;58004.16;5060906;28;20032;-59
2021/08/30 09:59:14;;;;;;;7.75;3.40;;;;;;;-142.25;100.00;58004.16;5062326;28;20020;-59
2021/08/30 10:01:41;;;;;;;9.35;4.15;;;;;;;-142.25;100.00;58004.16;5063671;28;20194;-64
2021/08/30 10:04:09;;;;;;;11.45;3.85;;;;;;;-142.25;100.00;58004.16;5062355;28;20047;-65
2021/08/30 10:06:36;;;;;;;6.25;3.38;;;;;;;-142.25;100.00;58004.16;5063531;28;20028;-60
2021/08/30 10:09:10;;;;;;;5.47;3.33;;;;;;;-142.25;100.00;58004.16;5063717;28;20025;-59
2021/08/30 10:11:39;;;;;;;8.85;4.72;;;;;;;-142.25;100.00;58004.16;5060667;28;20075;-60
2021/08/30 10:14:07;;;;;;;11.25;5.45;;;;;;;-142.25;100.00;58004.16;5061368;28;20039;-59
2021/08/30 10:16:34;;;;;;;252.02;239.65;;;;;;;-142.25;100.00;58004.16;5061083;28;20017;-61
2021/08/30 10:19:00;;;;;;;241.32;229.35;;;;;;;-142.25;100.00;58004.16;5059000;28;20020;-60
2021/08/30 10:21:28;;;;;;;341.08;323.15;;;;;;;-142.25;100.00;58004.16;5060341;28;20361;-60
2021/08/30 10:23:53;;;;;;;216.77;206.43;;;;;;;-142.25;100.00;58004.16;5059193;28;20127;-60
2021/08/30 10:26:19;;;;;;;335.45;318.73;;;;;;;-142.25;100.00;58004.16;5063470;28;20706;-60
2021/08/30 10:28:47;;;;;;;193.73;184.80;;;;;;;-142.25;100.00;58004.16;5060978;28;20116;-61
2021/08/30 10:31:24;;;;;;;148.82;141.85;;;;;;;-142.25;100.00;58004.16;5061039;28;20024;-59
2021/08/30 10:33:56;;;;;;;22.08;20.15;;;;;;;-142.25;100.00;58004.16;5067147;28;20066;-60
2021/08/30 10:36:24;;;;;;;11.73;10.23;;;;;;;-142.25;100.00;58004.16;5080530;28;20032;-60
2021/08/30 10:39:08;;;;;;;9.35;5.35;;;;;;;-142.25;100.00;58004.16;5079124;28;20032;-60
2021/08/30 10:41:39;;;;;;;7.25;4.53;;;;;;;-142.25;100.00;58004.16;5080127;28;20024;-59
2021/08/30 10:44:19;;;;;;;8.52;5.38;;;;;;;-142.25;100.00;58004.16;5079571;28;20072;-62
2021/08/30 10:46:51;;;;;;;9.68;5.22;;;;;;;-142.25;100.00;58004.16;5080029;28;20061;-62
2021/08/30 10:49:19;;;;;;;12.07;6.65;;;;;;;-142.25;100.00;58004.16;5080046;28;20038;-59
2021/08/30 10:51:46;;;;;;;29.98;27.63;;;;;;;-142.25;100.00;58004.16;5078294;28;20028;-61
2021/08/30 10:54:14;;;;;;;306.10;291.13;;;;;;;-142.25;100.00;58004.16;5079718;28;20028;-60
2021/08/30 10:56:41;;;;;;;574.33;540.42;;;;;;;-142.25;100.00;58004.16;5079346;28;20377;-60
2021/08/30 10:59:08;;;;;;;522.42;492.35;;;;;;;-142.25;100.00;58004.16;5081059;28;20021;-60
2021/08/30 11:01:38;;;;;;;537.55;506.05;;;;;;;-142.25;100.00;58004.16;5078878;28;20098;-62
2021/08/30 11:04:05;;;;;;;651.17;610.63;;;;;;;-142.25;100.00;58004.16;5080624;28;20074;-60
2021/08/30 11:06:31;;;;;;;640.70;601.58;;;;;;;-142.25;100.00;58004.16;5078554;28;20066;-61